sensor_id;sensor_type;location;lat;lon;timestamp;pressure;altitude;pressure_sealevel;temperature;humidity
22653;BME280;11493;43.344;26.226;2022-09-09T00:00:15;99381.94;;;17.14;94.47
22653;BME280;11493;43.344;26.226;2022-09-09T00:02:49;99390.28;;;17.14;95.09
22653;BME280;11493;43.344;26.226;2022-09-09T00:05:44;99386.25;;;17.11;95.02
22653;BME280;11493;43.344;26.226;2022-09-09T00:08:19;99381.03;;;17.09;95.39
22653;BME280;11493;43.344;26.226;2022-09-09T00:10:54;99369.31;;;17.00;95.27
22653;BME280;11493;43.344;26.226;2022-09-09T00:16:20;99389.94;;;16.99;96.04
22653;BME280;11493;43.344;26.226;2022-09-09T00:21:35;99389.75;;;16.92;96.23
22653;BME280;11493;43.344;26.226;2022-09-09T00:24:23;99381.47;;;16.80;96.89
22653;BME280;11493;43.344;26.226;2022-09-09T00:27:01;99378.22;;;16.78;97.09
22653;BME280;11493;43.344;26.226;2022-09-09T00:29:47;99381.25;;;16.73;97.67
22653;BME280;11493;43.344;26.226;2022-09-09T00:32:21;99385.84;;;16.81;97.50
22653;BME280;11493;43.344;26.226;2022-09-09T00:34:55;99397.44;;;16.83;97.46
22653;BME280;11493;43.344;26.226;2022-09-09T00:37:25;99394.28;;;16.85;97.28
22653;BME280;11493;43.344;26.226;2022-09-09T00:39:59;99383.53;;;16.83;97.64
22653;BME280;11493;43.344;26.226;2022-09-09T00:42:44;99380.91;;;16.74;97.75
22653;BME280;11493;43.344;26.226;2022-09-09T00:47:53;99380.03;;;16.86;96.89
22653;BME280;11493;43.344;26.226;2022-09-09T00:56:26;99390.06;;;16.63;97.90
22653;BME280;11493;43.344;26.226;2022-09-09T00:59:08;99377.78;;;16.64;97.73
22653;BME280;11493;43.344;26.226;2022-09-09T01:01:40;99368.34;;;16.53;97.78
22653;BME280;11493;43.344;26.226;2022-09-09T01:04:13;99382.44;;;16.60;97.37
22653;BME280;11493;43.344;26.226;2022-09-09T01:06:45;99385.22;;;16.60;97.47
22653;BME280;11493;43.344;26.226;2022-09-09T01:09:27;99377.59;;;16.57;97.67
22653;BME280;11493;43.344;26.226;2022-09-09T01:14:49;99375.41;;;16.50;97.81
22653;BME280;11493;43.344;26.226;2022-09-09T01:17:30;99391.03;;;16.55;97.86
22653;BME280;11493;43.344;26.226;2022-09-09T01:20:33;99392.94;;;16.38;98.02
22653;BME280;11493;43.344;26.226;2022-09-09T01:26:36;99389.44;;;16.41;99.20
22653;BME280;11493;43.344;26.226;2022-09-09T01:29:12;99383.66;;;16.47;98.35
22653;BME280;11493;43.344;26.226;2022-09-09T01:31:55;99380.41;;;16.44;98.46
22653;BME280;11493;43.344;26.226;2022-09-09T01:34:38;99357.47;;;16.32;98.47
22653;BME280;11493;43.344;26.226;2022-09-09T01:37:09;99377.06;;;16.39;98.78
22653;BME280;11493;43.344;26.226;2022-09-09T01:39:40;99370.44;;;16.28;99.58
22653;BME280;11493;43.344;26.226;2022-09-09T01:42:14;99368.91;;;16.30;99.75
22653;BME280;11493;43.344;26.226;2022-09-09T01:44:43;99357.59;;;16.23;100.00
22653;BME280;11493;43.344;26.226;2022-09-09T01:47:11;99358.53;;;16.27;100.00
22653;BME280;11493;43.344;26.226;2022-09-09T01:50:19;99363.72;;;16.29;99.99
22653;BME280;11493;43.344;26.226;2022-09-09T01:52:50;99372.84;;;16.29;100.00
22653;BME280;11493;43.344;26.226;2022-09-09T01:55:33;99362.09;;;16.28;100.00
22653;BME280;11493;43.344;26.226;2022-09-09T02:00:32;99362.00;;;16.24;100.00
22653;BME280;11493;43.344;26.226;2022-09-09T02:03:23;99374.00;;;16.28;100.00
22653;BME280;11493;43.344;26.226;2022-09-09T02:08:39;99359.69;;;16.26;99.85
22653;BME280;11493;43.344;26.226;2022-09-09T02:11:16;99362.91;;;16.28;99.99
22653;BME280;11493;43.344;26.226;2022-09-09T02:13:54;99349.53;;;16.18;100.00
22653;BME280;11493;43.344;26.226;2022-09-09T02:22:06;99374.84;;;16.17;99.78
22653;BME280;11493;43.344;26.226;2022-09-09T02:24:37;99373.56;;;16.26;99.14
22653;BME280;11493;43.344;26.226;2022-09-09T02:27:13;99366.38;;;16.25;99.24
22653;BME280;11493;43.344;26.226;2022-09-09T02:29:43;99372.66;;;16.22;98.95
22653;BME280;11493;43.344;26.226;2022-09-09T02:32:22;99359.72;;;16.14;98.95
22653;BME280;11493;43.344;26.226;2022-09-09T02:34:56;99359.38;;;16.03;99.51
22653;BME280;11493;43.344;26.226;2022-09-09T02:37:31;99361.00;;;16.04;99.49
22653;BME280;11493;43.344;26.226;2022-09-09T02:40:05;99358.56;;;16.03;99.39
22653;BME280;11493;43.344;26.226;2022-09-09T02:42:45;99362.16;;;16.03;99.37
22653;BME280;11493;43.344;26.226;2022-09-09T02:45:18;99356.97;;;16.02;99.38
22653;BME280;11493;43.344;26.226;2022-09-09T02:47:51;99363.91;;;15.96;99.41
22653;BME280;11493;43.344;26.226;2022-09-09T02:50:27;99358.81;;;15.98;99.16
22653;BME280;11493;43.344;26.226;2022-09-09T02:53:19;99359.16;;;15.96;99.20
22653;BME280;11493;43.344;26.226;2022-09-09T02:55:59;99361.38;;;15.91;99.30
22653;BME280;11493;43.344;26.226;2022-09-09T02:58:31;99372.94;;;15.93;99.54
22653;BME280;11493;43.344;26.226;2022-09-09T03:01:03;99368.09;;;15.90;99.87
22653;BME280;11493;43.344;26.226;2022-09-09T03:03:31;99346.94;;;15.85;99.96
22653;BME280;11493;43.344;26.226;2022-09-09T03:06:02;99343.91;;;15.90;99.80
22653;BME280;11493;43.344;26.226;2022-09-09T03:08:29;99347.84;;;15.89;99.61
22653;BME280;11493;43.344;26.226;2022-09-09T03:10:59;99351.88;;;15.92;99.35
22653;BME280;11493;43.344;26.226;2022-09-09T03:13:30;99357.44;;;15.92;99.53
22653;BME280;11493;43.344;26.226;2022-09-09T03:15:57;99347.97;;;15.93;98.98
22653;BME280;11493;43.344;26.226;2022-09-09T03:18:28;99355.00;;;15.90;98.81
22653;BME280;11493;43.344;26.226;2022-09-09T03:20:56;99345.78;;;15.86;98.46
22653;BME280;11493;43.344;26.226;2022-09-09T03:23:25;99340.47;;;15.81;98.90
22653;BME280;11493;43.344;26.226;2022-09-09T03:25:52;99361.63;;;15.73;99.44
22653;BME280;11493;43.344;26.226;2022-09-09T03:28:28;99360.34;;;15.71;99.64
22653;BME280;11493;43.344;26.226;2022-09-09T03:31:02;99366.25;;;15.69;100.00
22653;BME280;11493;43.344;26.226;2022-09-09T03:33:34;99351.69;;;15.60;100.00
22653;BME280;11493;43.344;26.226;2022-09-09T03:36:04;99356.53;;;15.63;100.00
22653;BME280;11493;43.344;26.226;2022-09-09T03:38:36;99364.53;;;15.65;100.00
22653;BME280;11493;43.344;26.226;2022-09-09T03:41:03;99364.31;;;15.58;100.00
22653;BME280;11493;43.344;26.226;2022-09-09T03:43:33;99358.03;;;15.61;100.00
22653;BME280;11493;43.344;26.226;2022-09-09T03:46:01;99364.97;;;15.67;100.00
22653;BME280;11493;43.344;26.226;2022-09-09T03:48:29;99363.13;;;15.71;100.00
22653;BME280;11493;43.344;26.226;2022-09-09T03:50:58;99358.50;;;15.75;100.00
22653;BME280;11493;43.344;26.226;2022-09-09T03:53:30;99363.59;;;15.73;100.00
22653;BME280;11493;43.344;26.226;2022-09-09T03:56:01;99362.31;;;15.70;100.00
22653;BME280;11493;43.344;26.226;2022-09-09T03:58:30;99336.66;;;15.61;100.00
22653;BME280;11493;43.344;26.226;2022-09-09T04:01:06;99347.63;;;15.70;100.00
22653;BME280;11493;43.344;26.226;2022-09-09T04:03:37;99345.78;;;15.74;100.00
22653;BME280;11493;43.344;26.226;2022-09-09T04:06:06;99348.31;;;15.79;100.00
22653;BME280;11493;43.344;26.226;2022-09-09T04:08:34;99349.56;;;15.94;99.83
22653;BME280;11493;43.344;26.226;2022-09-09T04:11:03;99353.41;;;15.89;99.81
22653;BME280;11493;43.344;26.226;2022-09-09T04:13:35;99358.94;;;15.89;100.00
22653;BME280;11493;43.344;26.226;2022-09-09T04:16:06;99362.19;;;15.91;100.00
22653;BME280;11493;43.344;26.226;2022-09-09T04:18:35;99354.22;;;15.90;100.00
22653;BME280;11493;43.344;26.226;2022-09-09T04:21:03;99358.94;;;15.89;99.86
22653;BME280;11493;43.344;26.226;2022-09-09T04:23:33;99363.44;;;15.94;99.93
22653;BME280;11493;43.344;26.226;2022-09-09T04:26:02;99354.66;;;16.04;99.84
22653;BME280;11493;43.344;26.226;2022-09-09T04:28:32;99361.81;;;16.05;99.99
22653;BME280;11493;43.344;26.226;2022-09-09T04:31:29;99368.75;;;15.99;99.68
22653;BME280;11493;43.344;26.226;2022-09-09T04:33:57;99376.00;;;16.16;99.27
22653;BME280;11493;43.344;26.226;2022-09-09T04:36:25;99376.69;;;16.25;98.57
22653;BME280;11493;43.344;26.226;2022-09-09T04:38:57;99371.84;;;16.22;98.80
22653;BME280;11493;43.344;26.226;2022-09-09T04:41:25;99376.53;;;16.33;98.32
22653;BME280;11493;43.344;26.226;2022-09-09T04:43:53;99380.53;;;16.48;97.11
22653;BME280;11493;43.344;26.226;2022-09-09T04:46:22;99364.22;;;16.47;96.71
22653;BME280;11493;43.344;26.226;2022-09-09T04:48:50;99369.97;;;16.54;96.62
22653;BME280;11493;43.344;26.226;2022-09-09T04:51:20;99364.06;;;16.55;96.50
22653;BME280;11493;43.344;26.226;2022-09-09T04:53:49;99370.97;;;16.61;96.39
22653;BME280;11493;43.344;26.226;2022-09-09T04:56:18;99375.50;;;16.66;95.78
22653;BME280;11493;43.344;26.226;2022-09-09T04:58:55;99369.78;;;16.74;95.42
22653;BME280;11493;43.344;26.226;2022-09-09T05:01:30;99383.72;;;16.90;95.24
22653;BME280;11493;43.344;26.226;2022-09-09T05:04:02;99376.50;;;17.01;94.02
22653;BME280;11493;43.344;26.226;2022-09-09T05:06:32;99361.06;;;17.04;93.44
22653;BME280;11493;43.344;26.226;2022-09-09T05:09:00;99373.06;;;17.24;92.76
22653;BME280;11493;43.344;26.226;2022-09-09T05:11:30;99376.22;;;17.38;91.66
22653;BME280;11493;43.344;26.226;2022-09-09T05:14:10;99368.06;;;17.45;90.42
22653;BME280;11493;43.344;26.226;2022-09-09T05:16:39;99376.84;;;17.47;90.34
22653;BME280;11493;43.344;26.226;2022-09-09T05:19:07;99364.28;;;17.53;89.38
22653;BME280;11493;43.344;26.226;2022-09-09T05:21:42;99370.91;;;17.64;88.93
22653;BME280;11493;43.344;26.226;2022-09-09T05:24:11;99364.03;;;17.74;88.10
22653;BME280;11493;43.344;26.226;2022-09-09T05:26:39;99364.69;;;17.87;87.69
22653;BME280;11493;43.344;26.226;2022-09-09T05:29:07;99377.31;;;18.00;86.32
22653;BME280;11493;43.344;26.226;2022-09-09T05:31:36;99364.28;;;18.04;85.96
22653;BME280;11493;43.344;26.226;2022-09-09T05:34:08;99358.59;;;18.16;85.22
22653;BME280;11493;43.344;26.226;2022-09-09T05:36:35;99344.31;;;18.18;84.98
22653;BME280;11493;43.344;26.226;2022-09-09T05:39:03;99357.28;;;18.29;84.26
22653;BME280;11493;43.344;26.226;2022-09-09T05:41:32;99358.91;;;18.50;83.92
22653;BME280;11493;43.344;26.226;2022-09-09T05:44:01;99353.91;;;18.59;83.86
22653;BME280;11493;43.344;26.226;2022-09-09T05:46:30;99368.44;;;18.68;83.41
22653;BME280;11493;43.344;26.226;2022-09-09T05:48:57;99365.44;;;18.77;83.33
22653;BME280;11493;43.344;26.226;2022-09-09T05:51:29;99373.28;;;18.90;83.00
22653;BME280;11493;43.344;26.226;2022-09-09T05:54:05;99363.88;;;18.98;82.63
22653;BME280;11493;43.344;26.226;2022-09-09T05:56:37;99366.66;;;18.98;82.14
22653;BME280;11493;43.344;26.226;2022-09-09T05:59:06;99371.63;;;19.09;81.55
22653;BME280;11493;43.344;26.226;2022-09-09T06:01:36;99360.59;;;19.16;80.77
22653;BME280;11493;43.344;26.226;2022-09-09T06:04:12;99348.00;;;19.25;80.32
22653;BME280;11493;43.344;26.226;2022-09-09T06:06:40;99346.69;;;19.42;80.13
22653;BME280;11493;43.344;26.226;2022-09-09T06:09:12;99352.59;;;19.60;79.77
22653;BME280;11493;43.344;26.226;2022-09-09T06:11:42;99364.78;;;19.75;79.30
22653;BME280;11493;43.344;26.226;2022-09-09T06:14:11;99346.53;;;19.81;79.01
22653;BME280;11493;43.344;26.226;2022-09-09T06:16:39;99363.50;;;19.95;78.53
22653;BME280;11493;43.344;26.226;2022-09-09T06:19:18;99358.81;;;20.02;77.96
22653;BME280;11493;43.344;26.226;2022-09-09T06:21:48;99351.78;;;20.16;77.54
22653;BME280;11493;43.344;26.226;2022-09-09T06:24:16;99349.94;;;20.27;77.21
22653;BME280;11493;43.344;26.226;2022-09-09T06:26:46;99355.75;;;20.41;76.60
22653;BME280;11493;43.344;26.226;2022-09-09T06:29:20;99351.09;;;20.52;76.10
22653;BME280;11493;43.344;26.226;2022-09-09T06:31:48;99350.09;;;20.67;76.17
22653;BME280;11493;43.344;26.226;2022-09-09T06:34:20;99354.63;;;20.83;74.99
22653;BME280;11493;43.344;26.226;2022-09-09T06:36:51;99355.66;;;21.05;74.29
22653;BME280;11493;43.344;26.226;2022-09-09T06:39:19;99333.63;;;20.99;74.12
22653;BME280;11493;43.344;26.226;2022-09-09T06:41:46;99345.91;;;21.25;73.40
22653;BME280;11493;43.344;26.226;2022-09-09T06:44:32;99339.59;;;21.35;71.85
22653;BME280;11493;43.344;26.226;2022-09-09T06:47:03;99332.53;;;21.52;71.27
22653;BME280;11493;43.344;26.226;2022-09-09T06:49:32;99341.47;;;21.72;70.53
22653;BME280;11493;43.344;26.226;2022-09-09T06:52:01;99341.56;;;21.86;69.75
22653;BME280;11493;43.344;26.226;2022-09-09T06:54:29;99332.44;;;21.96;69.38
22653;BME280;11493;43.344;26.226;2022-09-09T06:56:57;99351.78;;;22.15;68.86
22653;BME280;11493;43.344;26.226;2022-09-09T06:59:24;99350.66;;;22.30;68.68
22653;BME280;11493;43.344;26.226;2022-09-09T07:01:54;99343.91;;;22.46;68.27
22653;BME280;11493;43.344;26.226;2022-09-09T07:04:23;99343.16;;;22.59;67.70
22653;BME280;11493;43.344;26.226;2022-09-09T07:06:52;99346.81;;;22.74;67.51
22653;BME280;11493;43.344;26.226;2022-09-09T07:09:24;99338.09;;;22.90;66.58
22653;BME280;11493;43.344;26.226;2022-09-09T07:11:53;99346.09;;;23.06;66.51
22653;BME280;11493;43.344;26.226;2022-09-09T07:14:23;99336.50;;;23.14;65.75
22653;BME280;11493;43.344;26.226;2022-09-09T07:16:54;99335.31;;;23.22;64.84
22653;BME280;11493;43.344;26.226;2022-09-09T07:19:26;99338.13;;;23.40;64.45
22653;BME280;11493;43.344;26.226;2022-09-09T07:21:55;99344.19;;;23.59;64.01
22653;BME280;11493;43.344;26.226;2022-09-09T07:24:24;99332.94;;;23.70;64.54
22653;BME280;11493;43.344;26.226;2022-09-09T07:26:51;99341.31;;;23.88;63.31
22653;BME280;11493;43.344;26.226;2022-09-09T07:29:19;99332.06;;;23.98;63.47
22653;BME280;11493;43.344;26.226;2022-09-09T07:31:49;99328.44;;;24.08;62.34
22653;BME280;11493;43.344;26.226;2022-09-09T07:34:22;99329.19;;;24.19;61.82
22653;BME280;11493;43.344;26.226;2022-09-09T07:36:51;99330.78;;;24.31;61.50
22653;BME280;11493;43.344;26.226;2022-09-09T07:39:19;99331.91;;;24.51;59.97
22653;BME280;11493;43.344;26.226;2022-09-09T07:41:49;99330.63;;;24.67;59.58
22653;BME280;11493;43.344;26.226;2022-09-09T07:44:23;99320.13;;;24.74;58.32
22653;BME280;11493;43.344;26.226;2022-09-09T07:47:05;99331.34;;;24.85;58.67
22653;BME280;11493;43.344;26.226;2022-09-09T07:49:36;99318.41;;;24.98;58.67
22653;BME280;11493;43.344;26.226;2022-09-09T07:52:06;99308.69;;;25.10;58.05
22653;BME280;11493;43.344;26.226;2022-09-09T07:54:42;99311.31;;;25.31;58.30
22653;BME280;11493;43.344;26.226;2022-09-09T07:57:13;99303.56;;;25.46;58.03
22653;BME280;11493;43.344;26.226;2022-09-09T07:59:42;99305.41;;;25.67;56.45
22653;BME280;11493;43.344;26.226;2022-09-09T08:02:09;99307.75;;;25.75;55.64
22653;BME280;11493;43.344;26.226;2022-09-09T08:04:37;99304.88;;;25.79;55.16
22653;BME280;11493;43.344;26.226;2022-09-09T08:07:04;99308.44;;;25.86;55.14
22653;BME280;11493;43.344;26.226;2022-09-09T08:09:40;99303.91;;;25.96;55.02
22653;BME280;11493;43.344;26.226;2022-09-09T08:12:14;99315.75;;;26.14;54.57
22653;BME280;11493;43.344;26.226;2022-09-09T08:14:42;99307.56;;;26.27;54.10
22653;BME280;11493;43.344;26.226;2022-09-09T08:17:09;99305.41;;;26.42;54.58
22653;BME280;11493;43.344;26.226;2022-09-09T08:19:37;99300.00;;;26.55;53.24
22653;BME280;11493;43.344;26.226;2022-09-09T08:22:12;99292.66;;;26.61;53.43
22653;BME280;11493;43.344;26.226;2022-09-09T08:24:39;99298.03;;;26.78;51.60
22653;BME280;11493;43.344;26.226;2022-09-09T08:27:08;99296.69;;;26.87;52.16
22653;BME280;11493;43.344;26.226;2022-09-09T08:29:37;99296.94;;;26.99;52.17
22653;BME280;11493;43.344;26.226;2022-09-09T08:32:05;99302.91;;;27.05;51.58
22653;BME280;11493;43.344;26.226;2022-09-09T08:34:34;99303.94;;;27.18;51.49
22653;BME280;11493;43.344;26.226;2022-09-09T08:37:11;99296.56;;;27.24;50.44
22653;BME280;11493;43.344;26.226;2022-09-09T08:39:40;99294.47;;;27.28;50.06
22653;BME280;11493;43.344;26.226;2022-09-09T08:48:10;99277.00;;;27.57;50.38
22653;BME280;11493;43.344;26.226;2022-09-09T08:50:42;99259.59;;;27.62;49.36
22653;BME280;11493;43.344;26.226;2022-09-09T08:53:22;99254.16;;;27.71;49.60
22653;BME280;11493;43.344;26.226;2022-09-09T08:55:57;99253.53;;;27.83;48.46
22653;BME280;11493;43.344;26.226;2022-09-09T08:58:49;99255.50;;;27.86;48.37
22653;BME280;11493;43.344;26.226;2022-09-09T09:08:08;99247.25;;;28.15;48.50
22653;BME280;11493;43.344;26.226;2022-09-09T09:10:47;99236.72;;;28.16;47.92
22653;BME280;11493;43.344;26.226;2022-09-09T09:13:37;99242.25;;;28.23;48.09
22653;BME280;11493;43.344;26.226;2022-09-09T09:16:41;99232.81;;;28.29;46.80
22653;BME280;11493;43.344;26.226;2022-09-09T09:19:14;99238.59;;;28.42;46.22
22653;BME280;11493;43.344;26.226;2022-09-09T09:24:56;99244.75;;;28.57;46.24
22653;BME280;11493;43.344;26.226;2022-09-09T09:27:36;99243.66;;;28.51;45.85
22653;BME280;11493;43.344;26.226;2022-09-09T09:30:19;99240.88;;;28.67;45.13
22653;BME280;11493;43.344;26.226;2022-09-09T09:33:14;99240.44;;;28.68;45.04
22653;BME280;11493;43.344;26.226;2022-09-09T09:35:43;99239.03;;;28.76;46.06
22653;BME280;11493;43.344;26.226;2022-09-09T09:38:19;99249.00;;;28.85;44.96
22653;BME280;11493;43.344;26.226;2022-09-09T09:41:10;99225.53;;;28.84;45.37
22653;BME280;11493;43.344;26.226;2022-09-09T09:43:40;99233.06;;;28.91;45.57
22653;BME280;11493;43.344;26.226;2022-09-09T09:46:22;99233.66;;;28.98;45.07
22653;BME280;11493;43.344;26.226;2022-09-09T09:49:12;99234.72;;;29.04;44.64
22653;BME280;11493;43.344;26.226;2022-09-09T09:51:42;99231.63;;;29.15;44.93
22653;BME280;11493;43.344;26.226;2022-09-09T09:54:25;99234.28;;;29.22;44.54
22653;BME280;11493;43.344;26.226;2022-09-09T09:57:11;99218.34;;;29.28;43.74
22653;BME280;11493;43.344;26.226;2022-09-09T09:59:42;99218.41;;;29.41;43.58
22653;BME280;11493;43.344;26.226;2022-09-09T10:02:25;99222.25;;;29.51;44.19
22653;BME280;11493;43.344;26.226;2022-09-09T10:05:24;99217.28;;;29.55;43.44
22653;BME280;11493;43.344;26.226;2022-09-09T10:08:11;99213.34;;;29.65;43.58
22653;BME280;11493;43.344;26.226;2022-09-09T10:10:45;99213.94;;;29.72;43.19
22653;BME280;11493;43.344;26.226;2022-09-09T10:19:32;99197.44;;;29.96;42.86
22653;BME280;11493;43.344;26.226;2022-09-09T10:51:06;99198.50;;;30.44;39.78
22653;BME280;11493;43.344;26.226;2022-09-09T10:56:19;99203.00;;;30.29;41.13
22653;BME280;11493;43.344;26.226;2022-09-09T10:59:23;99196.22;;;30.39;41.00
22653;BME280;11493;43.344;26.226;2022-09-09T11:01:47;99180.19;;;30.32;40.52
22653;BME280;11493;43.344;26.226;2022-09-09T11:04:23;99174.63;;;30.29;41.65
22653;BME280;11493;43.344;26.226;2022-09-09T11:06:55;99165.22;;;30.45;40.24
22653;BME280;11493;43.344;26.226;2022-09-09T11:09:26;99161.31;;;30.51;40.91
22653;BME280;11493;43.344;26.226;2022-09-09T11:11:57;99173.25;;;30.46;40.74
22653;BME280;11493;43.344;26.226;2022-09-09T11:17:09;99178.28;;;30.67;42.42
22653;BME280;11493;43.344;26.226;2022-09-09T11:19:43;99183.41;;;30.72;40.97
22653;BME280;11493;43.344;26.226;2022-09-09T11:25:01;99186.47;;;30.78;40.49
22653;BME280;11493;43.344;26.226;2022-09-09T11:34:37;99166.47;;;30.82;41.19
22653;BME280;11493;43.344;26.226;2022-09-09T11:42:22;99156.34;;;30.81;40.16
22653;BME280;11493;43.344;26.226;2022-09-09T11:44:51;99150.44;;;30.88;38.66
22653;BME280;11493;43.344;26.226;2022-09-09T11:47:27;99158.47;;;31.02;39.38
22653;BME280;11493;43.344;26.226;2022-09-09T11:50:26;99163.00;;;31.12;38.89
22653;BME280;11493;43.344;26.226;2022-09-09T11:53:24;99161.78;;;31.13;38.49
22653;BME280;11493;43.344;26.226;2022-09-09T11:56:03;99145.41;;;31.17;37.78
22653;BME280;11493;43.344;26.226;2022-09-09T11:58:38;99145.59;;;31.23;38.44
22653;BME280;11493;43.344;26.226;2022-09-09T12:07:02;99137.09;;;31.10;38.67
22653;BME280;11493;43.344;26.226;2022-09-09T12:19:42;99122.38;;;31.24;39.30
22653;BME280;11493;43.344;26.226;2022-09-09T12:28:18;99123.63;;;31.23;39.39
22653;BME280;11493;43.344;26.226;2022-09-09T12:31:07;99131.19;;;31.17;38.84
22653;BME280;11493;43.344;26.226;2022-09-09T12:33:39;99121.28;;;31.09;39.28
22653;BME280;11493;43.344;26.226;2022-09-09T12:36:15;99120.03;;;31.10;38.97
22653;BME280;11493;43.344;26.226;2022-09-09T12:38:45;99097.72;;;31.21;38.82
22653;BME280;11493;43.344;26.226;2022-09-09T12:41:27;99102.34;;;31.28;38.98
22653;BME280;11493;43.344;26.226;2022-09-09T12:44:05;99093.94;;;31.24;39.06
22653;BME280;11493;43.344;26.226;2022-09-09T12:46:51;99096.41;;;31.35;39.12
22653;BME280;11493;43.344;26.226;2022-09-09T12:51:54;99091.47;;;31.48;39.45
22653;BME280;11493;43.344;26.226;2022-09-09T12:54:24;99097.22;;;31.57;39.09
22653;BME280;11493;43.344;26.226;2022-09-09T12:56:51;99085.84;;;31.57;38.12
22653;BME280;11493;43.344;26.226;2022-09-09T12:59:34;99088.41;;;31.64;38.33
22653;BME280;11493;43.344;26.226;2022-09-09T13:02:02;99090.09;;;31.75;38.01
22653;BME280;11493;43.344;26.226;2022-09-09T13:04:38;99080.03;;;31.61;39.38
22653;BME280;11493;43.344;26.226;2022-09-09T13:07:07;99079.88;;;31.64;38.86
22653;BME280;11493;43.344;26.226;2022-09-09T13:09:37;99078.97;;;31.67;39.34
22653;BME280;11493;43.344;26.226;2022-09-09T13:12:06;99066.78;;;31.67;37.69
22653;BME280;11493;43.344;26.226;2022-09-09T13:14:38;99065.56;;;31.68;37.41
22653;BME280;11493;43.344;26.226;2022-09-09T13:17:06;99061.50;;;31.56;37.12
22653;BME280;11493;43.344;26.226;2022-09-09T13:19:37;99054.03;;;31.50;38.16
22653;BME280;11493;43.344;26.226;2022-09-09T13:22:13;99055.28;;;31.49;37.19
22653;BME280;11493;43.344;26.226;2022-09-09T13:24:41;99049.06;;;31.41;37.40
22653;BME280;11493;43.344;26.226;2022-09-09T13:27:30;99057.81;;;31.47;37.33
22653;BME280;11493;43.344;26.226;2022-09-09T13:29:58;99049.47;;;31.52;37.20
22653;BME280;11493;43.344;26.226;2022-09-09T13:32:27;99060.66;;;31.68;37.72
22653;BME280;11493;43.344;26.226;2022-09-09T13:35:00;99061.88;;;31.67;37.84
22653;BME280;11493;43.344;26.226;2022-09-09T13:37:35;99061.78;;;31.49;39.55
22653;BME280;11493;43.344;26.226;2022-09-09T13:40:05;99054.50;;;31.48;37.79
22653;BME280;11493;43.344;26.226;2022-09-09T13:42:38;99041.47;;;31.38;37.17
22653;BME280;11493;43.344;26.226;2022-09-09T13:45:14;99056.16;;;31.36;37.87
22653;BME280;11493;43.344;26.226;2022-09-09T13:47:43;99044.44;;;31.13;38.98
22653;BME280;11493;43.344;26.226;2022-09-09T13:52:55;99052.59;;;30.89;40.06
22653;BME280;11493;43.344;26.226;2022-09-09T13:55:24;99039.69;;;30.62;40.03
22653;BME280;11493;43.344;26.226;2022-09-09T14:00:19;99043.81;;;30.36;39.94
22653;BME280;11493;43.344;26.226;2022-09-09T14:02:48;99048.59;;;30.39;40.32
22653;BME280;11493;43.344;26.226;2022-09-09T14:05:18;99047.47;;;30.24;40.81
22653;BME280;11493;43.344;26.226;2022-09-09T14:07:46;99044.97;;;30.13;41.38
22653;BME280;11493;43.344;26.226;2022-09-09T14:10:19;99049.03;;;29.99;42.39
22653;BME280;11493;43.344;26.226;2022-09-09T14:12:46;99052.53;;;29.91;42.67
22653;BME280;11493;43.344;26.226;2022-09-09T14:15:14;99043.09;;;29.81;42.37
22653;BME280;11493;43.344;26.226;2022-09-09T14:17:42;99041.72;;;29.73;43.00
22653;BME280;11493;43.344;26.226;2022-09-09T14:20:10;99041.63;;;29.76;41.62
22653;BME280;11493;43.344;26.226;2022-09-09T14:22:38;99033.03;;;29.67;41.93
22653;BME280;11493;43.344;26.226;2022-09-09T14:25:06;99030.97;;;29.68;42.10
22653;BME280;11493;43.344;26.226;2022-09-09T14:27:33;99031.63;;;29.72;41.85
22653;BME280;11493;43.344;26.226;2022-09-09T14:30:01;99041.19;;;29.78;41.61
22653;BME280;11493;43.344;26.226;2022-09-09T14:32:28;99027.09;;;29.74;41.37
22653;BME280;11493;43.344;26.226;2022-09-09T14:34:56;99021.78;;;29.64;41.72
22653;BME280;11493;43.344;26.226;2022-09-09T14:37:23;99026.88;;;29.56;42.17
22653;BME280;11493;43.344;26.226;2022-09-09T14:39:51;99031.97;;;29.49;42.34
22653;BME280;11493;43.344;26.226;2022-09-09T14:42:18;99025.31;;;29.39;42.94
22653;BME280;11493;43.344;26.226;2022-09-09T14:44:45;99023.75;;;29.38;43.27
22653;BME280;11493;43.344;26.226;2022-09-09T14:47:13;99025.59;;;29.45;43.33
22653;BME280;11493;43.344;26.226;2022-09-09T14:49:40;99024.09;;;29.40;43.11
22653;BME280;11493;43.344;26.226;2022-09-09T14:52:13;99028.38;;;29.32;43.10
22653;BME280;11493;43.344;26.226;2022-09-09T14:54:40;99032.34;;;29.34;42.85
22653;BME280;11493;43.344;26.226;2022-09-09T14:57:07;99024.75;;;29.31;42.45
22653;BME280;11493;43.344;26.226;2022-09-09T14:59:34;99028.91;;;29.27;43.17
22653;BME280;11493;43.344;26.226;2022-09-09T15:02:02;99030.38;;;29.19;43.37
22653;BME280;11493;43.344;26.226;2022-09-09T15:04:31;99040.91;;;29.18;43.36
22653;BME280;11493;43.344;26.226;2022-09-09T15:06:58;99030.13;;;29.13;43.43
22653;BME280;11493;43.344;26.226;2022-09-09T15:09:26;99031.91;;;29.07;43.92
22653;BME280;11493;43.344;26.226;2022-09-09T15:11:53;99024.31;;;29.04;43.92
22653;BME280;11493;43.344;26.226;2022-09-09T15:14:20;99036.69;;;29.10;43.99
22653;BME280;11493;43.344;26.226;2022-09-09T15:16:51;99038.97;;;29.15;43.74
22653;BME280;11493;43.344;26.226;2022-09-09T15:19:18;99045.88;;;29.14;43.96
22653;BME280;11493;43.344;26.226;2022-09-09T15:21:46;99043.03;;;29.14;43.99
22653;BME280;11493;43.344;26.226;2022-09-09T15:24:13;99045.19;;;29.10;44.48
22653;BME280;11493;43.344;26.226;2022-09-09T15:26:40;99042.09;;;29.04;44.53
22653;BME280;11493;43.344;26.226;2022-09-09T15:29:08;99051.94;;;29.00;43.94
22653;BME280;11493;43.344;26.226;2022-09-09T15:31:35;99053.63;;;28.97;45.07